sensor_id;sensor_type;location;lat;lon;timestamp;temperature;humidity
38090;DHT22;23904;52.322;10.232;2022-08-20T00:01:00;21.00;99.90
38090;DHT22;23904;52.322;10.232;2022-08-20T00:03:32;21.00;99.90
38090;DHT22;23904;52.322;10.232;2022-08-20T00:06:01;21.00;99.90
38090;DHT22;23904;52.322;10.232;2022-08-20T00:08:28;20.90;99.90
38090;DHT22;23904;52.322;10.232;2022-08-20T00:10:54;20.80;99.90
38090;DHT22;23904;52.322;10.232;2022-08-20T00:13:26;20.80;99.90
38090;DHT22;23904;52.322;10.232;2022-08-20T00:15:53;20.80;99.90
38090;DHT22;23904;52.322;10.232;2022-08-20T00:18:20;20.70;99.90
38090;DHT22;23904;52.322;10.232;2022-08-20T00:20:48;20.70;99.90
38090;DHT22;23904;52.322;10.232;2022-08-20T00:23:16;20.70;99.90
38090;DHT22;23904;52.322;10.232;2022-08-20T00:25:42;20.70;99.90
38090;DHT22;23904;52.322;10.232;2022-08-20T00:28:08;20.70;99.90
38090;DHT22;23904;52.322;10.232;2022-08-20T00:30:35;20.70;99.90
38090;DHT22;23904;52.322;10.232;2022-08-20T00:33:05;20.70;99.90
38090;DHT22;23904;52.322;10.232;2022-08-20T00:35:34;20.70;99.90
38090;DHT22;23904;52.322;10.232;2022-08-20T00:38:00;20.70;99.90
38090;DHT22;23904;52.322;10.232;2022-08-20T00:40:34;20.70;99.90
38090;DHT22;23904;52.322;10.232;2022-08-20T00:43:04;20.60;99.90
38090;DHT22;23904;52.322;10.232;2022-08-20T00:45:31;20.50;99.90
38090;DHT22;23904;52.322;10.232;2022-08-20T00:47:57;20.50;99.90
38090;DHT22;23904;52.322;10.232;2022-08-20T00:50:28;20.60;99.90
38090;DHT22;23904;52.322;10.232;2022-08-20T00:52:56;20.60;99.90
38090;DHT22;23904;52.322;10.232;2022-08-20T00:55:23;20.60;99.90
38090;DHT22;23904;52.322;10.232;2022-08-20T00:57:53;20.60;99.90
38090;DHT22;23904;52.322;10.232;2022-08-20T01:00:27;20.50;99.90
38090;DHT22;23904;52.322;10.232;2022-08-20T01:02:54;20.40;99.90
38090;DHT22;23904;52.322;10.232;2022-08-20T01:05:20;20.50;99.90
38090;DHT22;23904;52.322;10.232;2022-08-20T01:07:48;20.40;99.90
38090;DHT22;23904;52.322;10.232;2022-08-20T01:10:17;20.40;99.90
38090;DHT22;23904;52.322;10.232;2022-08-20T01:12:45;20.40;99.90
38090;DHT22;23904;52.322;10.232;2022-08-20T01:15:15;20.40;99.90
38090;DHT22;23904;52.322;10.232;2022-08-20T01:17:48;20.40;99.90
38090;DHT22;23904;52.322;10.232;2022-08-20T01:20:28;20.40;99.90
38090;DHT22;23904;52.322;10.232;2022-08-20T01:26:02;20.20;99.90
38090;DHT22;23904;52.322;10.232;2022-08-20T01:28:58;20.30;99.90
38090;DHT22;23904;52.322;10.232;2022-08-20T01:31:28;20.30;99.90
38090;DHT22;23904;52.322;10.232;2022-08-20T01:33:55;20.30;99.90
38090;DHT22;23904;52.322;10.232;2022-08-20T01:36:25;20.30;99.90
38090;DHT22;23904;52.322;10.232;2022-08-20T01:38:51;20.40;99.90
38090;DHT22;23904;52.322;10.232;2022-08-20T01:41:54;20.30;99.90
38090;DHT22;23904;52.322;10.232;2022-08-20T01:44:24;20.20;99.90
38090;DHT22;23904;52.322;10.232;2022-08-20T01:46:51;20.20;99.90
38090;DHT22;23904;52.322;10.232;2022-08-20T01:49:31;20.20;99.90
38090;DHT22;23904;52.322;10.232;2022-08-20T01:52:01;20.20;99.90
38090;DHT22;23904;52.322;10.232;2022-08-20T01:54:31;20.30;99.90
38090;DHT22;23904;52.322;10.232;2022-08-20T01:57:01;20.20;99.90
38090;DHT22;23904;52.322;10.232;2022-08-20T01:59:27;20.20;99.90
38090;DHT22;23904;52.322;10.232;2022-08-20T02:01:53;20.20;99.90
38090;DHT22;23904;52.322;10.232;2022-08-20T02:04:19;20.20;99.90
38090;DHT22;23904;52.322;10.232;2022-08-20T02:06:49;20.20;99.90
38090;DHT22;23904;52.322;10.232;2022-08-20T02:09:16;20.20;99.90
38090;DHT22;23904;52.322;10.232;2022-08-20T02:11:42;20.10;99.90
38090;DHT22;23904;52.322;10.232;2022-08-20T02:14:09;20.10;99.90
38090;DHT22;23904;52.322;10.232;2022-08-20T02:16:38;20.10;99.90
38090;DHT22;23904;52.322;10.232;2022-08-20T02:19:18;20.10;99.90
38090;DHT22;23904;52.322;10.232;2022-08-20T02:21:50;20.10;99.90
38090;DHT22;23904;52.322;10.232;2022-08-20T02:24:17;20.10;99.90
38090;DHT22;23904;52.322;10.232;2022-08-20T02:26:43;20.10;99.90
38090;DHT22;23904;52.322;10.232;2022-08-20T02:29:12;20.10;99.90
38090;DHT22;23904;52.322;10.232;2022-08-20T02:31:38;20.10;99.90
38090;DHT22;23904;52.322;10.232;2022-08-20T02:34:04;20.00;99.90
38090;DHT22;23904;52.322;10.232;2022-08-20T02:36:31;20.00;99.90
38090;DHT22;23904;52.322;10.232;2022-08-20T02:38:56;20.00;99.90
38090;DHT22;23904;52.322;10.232;2022-08-20T02:41:22;20.00;99.90
38090;DHT22;23904;52.322;10.232;2022-08-20T02:43:48;20.00;99.90
38090;DHT22;23904;52.322;10.232;2022-08-20T02:46:16;20.00;99.90
38090;DHT22;23904;52.322;10.232;2022-08-20T02:48:42;19.90;99.90
38090;DHT22;23904;52.322;10.232;2022-08-20T02:51:08;19.80;99.90
38090;DHT22;23904;52.322;10.232;2022-08-20T02:53:37;19.70;99.90
38090;DHT22;23904;52.322;10.232;2022-08-20T02:56:04;19.80;99.90
38090;DHT22;23904;52.322;10.232;2022-08-20T02:58:30;19.80;99.90
38090;DHT22;23904;52.322;10.232;2022-08-20T03:00:56;19.70;99.90
38090;DHT22;23904;52.322;10.232;2022-08-20T03:03:22;19.60;99.90
38090;DHT22;23904;52.322;10.232;2022-08-20T03:05:54;19.70;99.90
38090;DHT22;23904;52.322;10.232;2022-08-20T03:08:21;19.70;99.90
38090;DHT22;23904;52.322;10.232;2022-08-20T03:10:47;19.80;99.90
38090;DHT22;23904;52.322;10.232;2022-08-20T03:13:14;19.80;99.90
38090;DHT22;23904;52.322;10.232;2022-08-20T03:15:43;19.80;99.90
38090;DHT22;23904;52.322;10.232;2022-08-20T03:18:10;19.80;99.90
38090;DHT22;23904;52.322;10.232;2022-08-20T03:20:36;19.80;99.90
38090;DHT22;23904;52.322;10.232;2022-08-20T03:23:01;19.70;99.90
38090;DHT22;23904;52.322;10.232;2022-08-20T03:25:27;19.70;99.90
38090;DHT22;23904;52.322;10.232;2022-08-20T03:27:53;19.70;99.90
38090;DHT22;23904;52.322;10.232;2022-08-20T03:30:21;19.70;99.90
38090;DHT22;23904;52.322;10.232;2022-08-20T03:32:47;19.60;99.90
38090;DHT22;23904;52.322;10.232;2022-08-20T03:35:15;19.60;99.90
38090;DHT22;23904;52.322;10.232;2022-08-20T03:37:41;19.60;99.90
38090;DHT22;23904;52.322;10.232;2022-08-20T03:40:14;19.60;99.90
38090;DHT22;23904;52.322;10.232;2022-08-20T03:42:41;19.60;99.90
38090;DHT22;23904;52.322;10.232;2022-08-20T03:45:08;19.70;99.90
38090;DHT22;23904;52.322;10.232;2022-08-20T03:47:34;19.70;99.90
38090;DHT22;23904;52.322;10.232;2022-08-20T03:50:01;19.60;99.90
38090;DHT22;23904;52.322;10.232;2022-08-20T03:52:27;19.60;99.90
38090;DHT22;23904;52.322;10.232;2022-08-20T03:54:54;19.60;99.90
38090;DHT22;23904;52.322;10.232;2022-08-20T03:57:19;19.60;99.90
38090;DHT22;23904;52.322;10.232;2022-08-20T03:59:45;19.50;99.90
38090;DHT22;23904;52.322;10.232;2022-08-20T04:02:11;19.50;99.90
38090;DHT22;23904;52.322;10.232;2022-08-20T04:04:37;19.50;99.90
38090;DHT22;23904;52.322;10.232;2022-08-20T04:07:12;19.50;99.90
38090;DHT22;23904;52.322;10.232;2022-08-20T04:09:39;19.50;99.90
38090;DHT22;23904;52.322;10.232;2022-08-20T04:12:06;19.50;99.90
38090;DHT22;23904;52.322;10.232;2022-08-20T04:14:32;19.50;99.90
38090;DHT22;23904;52.322;10.232;2022-08-20T04:17:04;19.40;99.90
38090;DHT22;23904;52.322;10.232;2022-08-20T04:19:30;19.40;99.90
38090;DHT22;23904;52.322;10.232;2022-08-20T04:21:55;19.40;99.90
38090;DHT22;23904;52.322;10.232;2022-08-20T04:24:21;19.40;99.90
38090;DHT22;23904;52.322;10.232;2022-08-20T04:26:46;19.40;99.90
38090;DHT22;23904;52.322;10.232;2022-08-20T04:29:12;19.30;99.90
38090;DHT22;23904;52.322;10.232;2022-08-20T04:31:37;19.30;99.90
38090;DHT22;23904;52.322;10.232;2022-08-20T04:34:04;19.30;99.90
38090;DHT22;23904;52.322;10.232;2022-08-20T04:36:32;19.30;99.90
38090;DHT22;23904;52.322;10.232;2022-08-20T04:38:59;19.30;99.90
38090;DHT22;23904;52.322;10.232;2022-08-20T04:41:24;19.20;99.90
38090;DHT22;23904;52.322;10.232;2022-08-20T04:43:51;19.20;99.90
38090;DHT22;23904;52.322;10.232;2022-08-20T04:46:18;19.20;99.90
38090;DHT22;23904;52.322;10.232;2022-08-20T04:48:43;19.30;99.90
38090;DHT22;23904;52.322;10.232;2022-08-20T04:51:09;19.40;99.90
38090;DHT22;23904;52.322;10.232;2022-08-20T04:53:39;19.40;99.90
38090;DHT22;23904;52.322;10.232;2022-08-20T04:56:05;19.40;99.90
38090;DHT22;23904;52.322;10.232;2022-08-20T04:58:34;19.50;99.90
38090;DHT22;23904;52.322;10.232;2022-08-20T05:01:03;19.50;99.90
38090;DHT22;23904;52.322;10.232;2022-08-20T05:03:29;19.60;99.90
38090;DHT22;23904;52.322;10.232;2022-08-20T05:05:56;19.60;99.90
38090;DHT22;23904;52.322;10.232;2022-08-20T05:08:23;19.70;99.90
38090;DHT22;23904;52.322;10.232;2022-08-20T05:10:50;19.70;99.90
38090;DHT22;23904;52.322;10.232;2022-08-20T05:13:16;19.70;99.90
38090;DHT22;23904;52.322;10.232;2022-08-20T05:15:42;19.80;99.90
38090;DHT22;23904;52.322;10.232;2022-08-20T05:18:11;19.90;99.90
38090;DHT22;23904;52.322;10.232;2022-08-20T05:20:40;19.90;99.90
38090;DHT22;23904;52.322;10.232;2022-08-20T05:23:08;19.90;99.90
38090;DHT22;23904;52.322;10.232;2022-08-20T05:25:35;20.00;99.90
38090;DHT22;23904;52.322;10.232;2022-08-20T05:28:07;19.90;99.90
38090;DHT22;23904;52.322;10.232;2022-08-20T05:30:35;20.00;99.90
38090;DHT22;23904;52.322;10.232;2022-08-20T05:33:03;20.10;99.90
38090;DHT22;23904;52.322;10.232;2022-08-20T05:35:30;20.10;99.90
38090;DHT22;23904;52.322;10.232;2022-08-20T05:37:58;20.10;99.90
38090;DHT22;23904;52.322;10.232;2022-08-20T05:40:25;20.10;99.90
38090;DHT22;23904;52.322;10.232;2022-08-20T05:42:50;20.10;99.90
38090;DHT22;23904;52.322;10.232;2022-08-20T05:45:18;20.20;99.90
38090;DHT22;23904;52.322;10.232;2022-08-20T05:47:44;20.10;99.90
38090;DHT22;23904;52.322;10.232;2022-08-20T05:50:11;20.10;99.90
38090;DHT22;23904;52.322;10.232;2022-08-20T05:52:38;20.20;99.90
38090;DHT22;23904;52.322;10.232;2022-08-20T05:55:08;20.20;99.90
38090;DHT22;23904;52.322;10.232;2022-08-20T05:57:35;20.20;99.90
38090;DHT22;23904;52.322;10.232;2022-08-20T06:00:03;20.20;99.90
38090;DHT22;23904;52.322;10.232;2022-08-20T06:02:29;20.20;99.90
38090;DHT22;23904;52.322;10.232;2022-08-20T06:05:13;20.30;99.90
38090;DHT22;23904;52.322;10.232;2022-08-20T06:07:39;20.30;99.90
38090;DHT22;23904;52.322;10.232;2022-08-20T06:10:05;20.30;99.90
38090;DHT22;23904;52.322;10.232;2022-08-20T06:12:31;20.30;99.90
38090;DHT22;23904;52.322;10.232;2022-08-20T06:14:58;20.30;99.90
38090;DHT22;23904;52.322;10.232;2022-08-20T06:17:23;20.30;99.90
38090;DHT22;23904;52.322;10.232;2022-08-20T06:19:49;20.20;99.90
38090;DHT22;23904;52.322;10.232;2022-08-20T06:22:15;20.20;99.90
38090;DHT22;23904;52.322;10.232;2022-08-20T06:24:41;20.20;99.90
38090;DHT22;23904;52.322;10.232;2022-08-20T06:27:07;20.10;99.90
38090;DHT22;23904;52.322;10.232;2022-08-20T06:29:32;20.20;99.90
38090;DHT22;23904;52.322;10.232;2022-08-20T06:31:59;20.20;99.90
38090;DHT22;23904;52.322;10.232;2022-08-20T06:34:26;20.30;99.90
38090;DHT22;23904;52.322;10.232;2022-08-20T06:36:53;20.30;99.90
38090;DHT22;23904;52.322;10.232;2022-08-20T06:39:18;20.40;99.90
38090;DHT22;23904;52.322;10.232;2022-08-20T06:41:44;20.60;99.90
38090;DHT22;23904;52.322;10.232;2022-08-20T06:44:10;20.70;99.90
38090;DHT22;23904;52.322;10.232;2022-08-20T06:46:36;20.70;99.90
38090;DHT22;23904;52.322;10.232;2022-08-20T06:49:03;20.70;99.90
38090;DHT22;23904;52.322;10.232;2022-08-20T06:51:30;20.60;99.90
38090;DHT22;23904;52.322;10.232;2022-08-20T06:53:56;20.60;99.90
38090;DHT22;23904;52.322;10.232;2022-08-20T06:56:21;20.50;99.90
38090;DHT22;23904;52.322;10.232;2022-08-20T06:58:47;20.50;99.90
38090;DHT22;23904;52.322;10.232;2022-08-20T07:01:14;20.60;99.90
38090;DHT22;23904;52.322;10.232;2022-08-20T07:03:42;20.60;99.90
38090;DHT22;23904;52.322;10.232;2022-08-20T07:06:07;20.60;99.90
38090;DHT22;23904;52.322;10.232;2022-08-20T07:08:34;20.70;99.90
38090;DHT22;23904;52.322;10.232;2022-08-20T07:11:00;20.60;99.90
38090;DHT22;23904;52.322;10.232;2022-08-20T07:13:26;20.60;99.90
38090;DHT22;23904;52.322;10.232;2022-08-20T07:15:53;20.70;99.90
38090;DHT22;23904;52.322;10.232;2022-08-20T07:18:19;20.90;99.90
38090;DHT22;23904;52.322;10.232;2022-08-20T07:20:44;21.00;99.90
38090;DHT22;23904;52.322;10.232;2022-08-20T07:23:10;21.00;99.90
38090;DHT22;23904;52.322;10.232;2022-08-20T07:25:37;21.00;99.90
38090;DHT22;23904;52.322;10.232;2022-08-20T07:28:12;21.00;99.90
38090;DHT22;23904;52.322;10.232;2022-08-20T07:30:38;21.10;99.90
38090;DHT22;23904;52.322;10.232;2022-08-20T07:33:22;21.10;99.90
38090;DHT22;23904;52.322;10.232;2022-08-20T07:35:48;21.00;99.90
38090;DHT22;23904;52.322;10.232;2022-08-20T07:38:16;21.00;99.90
38090;DHT22;23904;52.322;10.232;2022-08-20T07:40:44;21.10;99.90
38090;DHT22;23904;52.322;10.232;2022-08-20T07:43:09;21.30;99.90
38090;DHT22;23904;52.322;10.232;2022-08-20T07:45:35;21.30;99.90
38090;DHT22;23904;52.322;10.232;2022-08-20T07:48:11;21.40;99.90
38090;DHT22;23904;52.322;10.232;2022-08-20T07:50:37;21.60;99.90
38090;DHT22;23904;52.322;10.232;2022-08-20T07:53:03;21.60;99.90
38090;DHT22;23904;52.322;10.232;2022-08-20T07:55:29;21.60;99.90
38090;DHT22;23904;52.322;10.232;2022-08-20T07:57:57;21.60;99.90
38090;DHT22;23904;52.322;10.232;2022-08-20T08:00:24;21.70;99.90
38090;DHT22;23904;52.322;10.232;2022-08-20T08:02:50;21.80;99.90
38090;DHT22;23904;52.322;10.232;2022-08-20T08:05:16;21.80;99.90
38090;DHT22;23904;52.322;10.232;2022-08-20T08:07:42;21.80;99.90
38090;DHT22;23904;52.322;10.232;2022-08-20T08:10:11;21.80;99.90
38090;DHT22;23904;52.322;10.232;2022-08-20T08:12:42;21.70;99.90
38090;DHT22;23904;52.322;10.232;2022-08-20T08:15:11;22.00;99.90
38090;DHT22;23904;52.322;10.232;2022-08-20T08:17:38;22.00;99.90
38090;DHT22;23904;52.322;10.232;2022-08-20T08:20:05;22.10;99.90
38090;DHT22;23904;52.322;10.232;2022-08-20T08:22:31;22.00;99.90
38090;DHT22;23904;52.322;10.232;2022-08-20T08:24:57;21.90;99.90
38090;DHT22;23904;52.322;10.232;2022-08-20T08:27:29;22.00;99.90
38090;DHT22;23904;52.322;10.232;2022-08-20T08:29:59;22.20;99.90
38090;DHT22;23904;52.322;10.232;2022-08-20T08:32:26;22.40;99.90
38090;DHT22;23904;52.322;10.232;2022-08-20T08:34:52;22.50;99.90
38090;DHT22;23904;52.322;10.232;2022-08-20T08:37:17;22.70;99.90
38090;DHT22;23904;52.322;10.232;2022-08-20T08:39:43;22.80;99.90
38090;DHT22;23904;52.322;10.232;2022-08-20T08:42:27;23.00;99.90
38090;DHT22;23904;52.322;10.232;2022-08-20T08:44:58;23.30;99.90
38090;DHT22;23904;52.322;10.232;2022-08-20T08:47:29;23.50;99.90
38090;DHT22;23904;52.322;10.232;2022-08-20T08:49:56;23.60;99.90
38090;DHT22;23904;52.322;10.232;2022-08-20T08:52:28;23.40;99.90
38090;DHT22;23904;52.322;10.232;2022-08-20T08:54:56;23.40;99.90
38090;DHT22;23904;52.322;10.232;2022-08-20T08:57:23;23.40;99.90
38090;DHT22;23904;52.322;10.232;2022-08-20T08:59:55;23.30;99.90
38090;DHT22;23904;52.322;10.232;2022-08-20T09:02:25;23.00;99.90
38090;DHT22;23904;52.322;10.232;2022-08-20T09:04:53;23.10;99.90
38090;DHT22;23904;52.322;10.232;2022-08-20T09:07:22;23.20;99.90
38090;DHT22;23904;52.322;10.232;2022-08-20T09:09:49;23.20;99.90
38090;DHT22;23904;52.322;10.232;2022-08-20T09:12:19;23.20;99.90
38090;DHT22;23904;52.322;10.232;2022-08-20T09:14:46;23.30;99.90
38090;DHT22;23904;52.322;10.232;2022-08-20T09:17:13;23.50;99.90
38090;DHT22;23904;52.322;10.232;2022-08-20T09:19:38;23.70;99.90
38090;DHT22;23904;52.322;10.232;2022-08-20T09:22:16;23.90;99.90
38090;DHT22;23904;52.322;10.232;2022-08-20T09:24:42;24.10;99.90
38090;DHT22;23904;52.322;10.232;2022-08-20T09:27:08;24.10;99.90
38090;DHT22;23904;52.322;10.232;2022-08-20T09:29:34;24.20;99.90
38090;DHT22;23904;52.322;10.232;2022-08-20T09:32:10;24.20;99.90
38090;DHT22;23904;52.322;10.232;2022-08-20T09:34:42;24.10;99.90
38090;DHT22;23904;52.322;10.232;2022-08-20T09:37:09;24.30;99.90
38090;DHT22;23904;52.322;10.232;2022-08-20T09:39:35;24.40;99.90
38090;DHT22;23904;52.322;10.232;2022-08-20T09:42:19;24.50;99.90
38090;DHT22;23904;52.322;10.232;2022-08-20T09:44:45;24.30;99.90
38090;DHT22;23904;52.322;10.232;2022-08-20T09:47:11;24.20;99.90
38090;DHT22;23904;52.322;10.232;2022-08-20T09:49:37;24.20;99.90
38090;DHT22;23904;52.322;10.232;2022-08-20T09:52:06;24.00;99.90
38090;DHT22;23904;52.322;10.232;2022-08-20T09:54:33;23.90;99.90
38090;DHT22;23904;52.322;10.232;2022-08-20T09:57:02;24.00;99.90
38090;DHT22;23904;52.322;10.232;2022-08-20T09:59:29;24.00;99.90
38090;DHT22;23904;52.322;10.232;2022-08-20T10:01:55;23.90;99.90
38090;DHT22;23904;52.322;10.232;2022-08-20T10:04:20;24.00;99.90
38090;DHT22;23904;52.322;10.232;2022-08-20T10:06:46;23.90;99.90
38090;DHT22;23904;52.322;10.232;2022-08-20T10:09:12;23.70;99.90
38090;DHT22;23904;52.322;10.232;2022-08-20T10:11:37;23.80;99.90
38090;DHT22;23904;52.322;10.232;2022-08-20T10:14:03;23.80;99.90
38090;DHT22;23904;52.322;10.232;2022-08-20T10:16:29;24.00;99.90
38090;DHT22;23904;52.322;10.232;2022-08-20T10:18:55;24.10;99.90
38090;DHT22;23904;52.322;10.232;2022-08-20T10:21:21;24.10;99.90
38090;DHT22;23904;52.322;10.232;2022-08-20T10:23:46;24.00;99.90
38090;DHT22;23904;52.322;10.232;2022-08-20T10:26:13;24.00;99.90
38090;DHT22;23904;52.322;10.232;2022-08-20T10:28:39;24.20;99.80
38090;DHT22;23904;52.322;10.232;2022-08-20T10:31:06;23.90;99.90
38090;DHT22;23904;52.322;10.232;2022-08-20T10:33:32;23.70;99.90
38090;DHT22;23904;52.322;10.232;2022-08-20T10:35:57;23.60;99.90
38090;DHT22;23904;52.322;10.232;2022-08-20T10:38:29;23.50;99.90
38090;DHT22;23904;52.322;10.232;2022-08-20T10:40:55;23.50;99.90
38090;DHT22;23904;52.322;10.232;2022-08-20T10:43:20;23.50;99.90
38090;DHT22;23904;52.322;10.232;2022-08-20T10:45:46;23.70;99.90
38090;DHT22;23904;52.322;10.232;2022-08-20T10:48:12;23.70;99.90
38090;DHT22;23904;52.322;10.232;2022-08-20T10:50:37;23.70;99.90
38090;DHT22;23904;52.322;10.232;2022-08-20T10:53:02;23.80;99.90
38090;DHT22;23904;52.322;10.232;2022-08-20T10:55:28;23.90;99.90
38090;DHT22;23904;52.322;10.232;2022-08-20T10:57:53;23.90;99.90
38090;DHT22;23904;52.322;10.232;2022-08-20T11:00:19;23.90;99.90
38090;DHT22;23904;52.322;10.232;2022-08-20T11:02:45;24.10;99.90
38090;DHT22;23904;52.322;10.232;2022-08-20T11:05:10;24.20;99.90
38090;DHT22;23904;52.322;10.232;2022-08-20T11:07:38;24.10;99.90
38090;DHT22;23904;52.322;10.232;2022-08-20T11:10:07;23.90;99.90
38090;DHT22;23904;52.322;10.232;2022-08-20T11:12:33;24.10;99.90
38090;DHT22;23904;52.322;10.232;2022-08-20T11:14:58;24.20;99.90
38090;DHT22;23904;52.322;10.232;2022-08-20T11:17:27;24.30;99.90
38090;DHT22;23904;52.322;10.232;2022-08-20T11:19:54;24.40;99.90
38090;DHT22;23904;52.322;10.232;2022-08-20T11:22:20;24.70;99.90
38090;DHT22;23904;52.322;10.232;2022-08-20T11:24:45;24.80;99.90
38090;DHT22;23904;52.322;10.232;2022-08-20T11:27:16;25.00;99.90
38090;DHT22;23904;52.322;10.232;2022-08-20T11:29:42;25.00;99.60
38090;DHT22;23904;52.322;10.232;2022-08-20T11:32:08;25.00;99.70
38090;DHT22;23904;52.322;10.232;2022-08-20T11:34:33;25.30;99.00
38090;DHT22;23904;52.322;10.232;2022-08-20T11:36:59;25.50;98.80
38090;DHT22;23904;52.322;10.232;2022-08-20T11:39:25;25.80;98.60
38090;DHT22;23904;52.322;10.232;2022-08-20T11:41:51;26.00;98.20
38090;DHT22;23904;52.322;10.232;2022-08-20T11:44:16;26.10;97.50
38090;DHT22;23904;52.322;10.232;2022-08-20T11:46:42;26.50;96.90
38090;DHT22;23904;52.322;10.232;2022-08-20T11:49:07;27.40;95.40
38090;DHT22;23904;52.322;10.232;2022-08-20T11:51:33;28.30;93.90
38090;DHT22;23904;52.322;10.232;2022-08-20T11:53:59;28.90;91.80
38090;DHT22;23904;52.322;10.232;2022-08-20T11:56:24;28.10;91.50
38090;DHT22;23904;52.322;10.232;2022-08-20T11:58:50;27.40;92.40
38090;DHT22;23904;52.322;10.232;2022-08-20T12:01:15;26.90;93.90
38090;DHT22;23904;52.322;10.232;2022-08-20T12:03:41;26.50;94.70
38090;DHT22;23904;52.322;10.232;2022-08-20T12:06:06;26.00;95.20
38090;DHT22;23904;52.322;10.232;2022-08-20T12:08:32;25.70;95.70
38090;DHT22;23904;52.322;10.232;2022-08-20T12:10:59;25.40;96.00
38090;DHT22;23904;52.322;10.232;2022-08-20T12:13:26;25.00;96.70
38090;DHT22;23904;52.322;10.232;2022-08-20T12:15:53;24.80;98.10
38090;DHT22;23904;52.322;10.232;2022-08-20T12:18:19;24.40;99.30
38090;DHT22;23904;52.322;10.232;2022-08-20T12:20:44;24.20;99.90
38090;DHT22;23904;52.322;10.232;2022-08-20T12:23:10;24.10;99.90
38090;DHT22;23904;52.322;10.232;2022-08-20T12:25:36;24.00;99.90
38090;DHT22;23904;52.322;10.232;2022-08-20T12:28:01;23.90;99.90
38090;DHT22;23904;52.322;10.232;2022-08-20T12:30:29;23.80;99.90
38090;DHT22;23904;52.322;10.232;2022-08-20T12:32:55;23.70;99.90
38090;DHT22;23904;52.322;10.232;2022-08-20T12:35:21;23.90;99.90
38090;DHT22;23904;52.322;10.232;2022-08-20T12:37:46;23.90;99.90
38090;DHT22;23904;52.322;10.232;2022-08-20T12:40:21;24.00;99.90
38090;DHT22;23904;52.322;10.232;2022-08-20T12:42:47;24.10;99.90
38090;DHT22;23904;52.322;10.232;2022-08-20T12:45:14;23.80;99.90
38090;DHT22;23904;52.322;10.232;2022-08-20T12:47:42;23.60;99.90
38090;DHT22;23904;52.322;10.232;2022-08-20T12:50:12;23.50;99.90
38090;DHT22;23904;52.322;10.232;2022-08-20T12:52:39;23.40;99.90
38090;DHT22;23904;52.322;10.232;2022-08-20T12:55:06;23.40;99.60
38090;DHT22;23904;52.322;10.232;2022-08-20T12:57:34;23.30;99.80
38090;DHT22;23904;52.322;10.232;2022-08-20T13:00:06;23.40;99.90
38090;DHT22;23904;52.322;10.232;2022-08-20T13:02:32;23.50;99.90
38090;DHT22;23904;52.322;10.232;2022-08-20T13:04:57;23.70;99.90
38090;DHT22;23904;52.322;10.232;2022-08-20T13:07:23;23.80;99.90
38090;DHT22;23904;52.322;10.232;2022-08-20T13:09:48;23.70;99.90
38090;DHT22;23904;52.322;10.232;2022-08-20T13:12:14;23.60;99.90
38090;DHT22;23904;52.322;10.232;2022-08-20T13:14:40;23.80;99.90
38090;DHT22;23904;52.322;10.232;2022-08-20T13:17:06;23.90;99.90
38090;DHT22;23904;52.322;10.232;2022-08-20T13:19:34;24.00;99.90
38090;DHT22;23904;52.322;10.232;2022-08-20T13:22:00;24.00;99.90
38090;DHT22;23904;52.322;10.232;2022-08-20T13:24:26;24.20;99.90
38090;DHT22;23904;52.322;10.232;2022-08-20T13:26:51;24.20;99.90
38090;DHT22;23904;52.322;10.232;2022-08-20T13:29:18;24.50;99.90
38090;DHT22;23904;52.322;10.232;2022-08-20T13:31:43;24.60;99.80
38090;DHT22;23904;52.322;10.232;2022-08-20T13:34:09;24.80;99.00
38090;DHT22;23904;52.322;10.232;2022-08-20T13:36:35;24.90;98.70
38090;DHT22;23904;52.322;10.232;2022-08-20T13:39:06;24.80;99.20
38090;DHT22;23904;52.322;10.232;2022-08-20T13:41:31;25.00;98.80
38090;DHT22;23904;52.322;10.232;2022-08-20T13:43:57;25.20;98.10
38090;DHT22;23904;52.322;10.232;2022-08-20T13:46:22;25.40;97.70
38090;DHT22;23904;52.322;10.232;2022-08-20T13:48:49;25.50;97.20
38090;DHT22;23904;52.322;10.232;2022-08-20T13:51:14;25.50;97.70
38090;DHT22;23904;52.322;10.232;2022-08-20T13:53:40;25.70;97.40
38090;DHT22;23904;52.322;10.232;2022-08-20T13:56:06;25.90;97.20
38090;DHT22;23904;52.322;10.232;2022-08-20T13:58:31;25.80;96.80
38090;DHT22;23904;52.322;10.232;2022-08-20T14:00:57;25.80;96.90
38090;DHT22;23904;52.322;10.232;2022-08-20T14:03:22;25.90;97.20
38090;DHT22;23904;52.322;10.232;2022-08-20T14:05:48;25.90;96.90
38090;DHT22;23904;52.322;10.232;2022-08-20T14:08:16;25.80;96.90
38090;DHT22;23904;52.322;10.232;2022-08-20T14:10:43;25.80;96.90
38090;DHT22;23904;52.322;10.232;2022-08-20T14:13:10;25.80;97.10
38090;DHT22;23904;52.322;10.232;2022-08-20T14:15:36;25.70;97.40
38090;DHT22;23904;52.322;10.232;2022-08-20T14:18:02;25.70;97.60
38090;DHT22;23904;52.322;10.232;2022-08-20T14:20:30;25.80;97.10
38090;DHT22;23904;52.322;10.232;2022-08-20T14:22:56;25.60;97.60
38090;DHT22;23904;52.322;10.232;2022-08-20T14:25:23;25.60;97.60
38090;DHT22;23904;52.322;10.232;2022-08-20T14:27:50;25.60;97.50
38090;DHT22;23904;52.322;10.232;2022-08-20T14:30:20;25.50;97.40
38090;DHT22;23904;52.322;10.232;2022-08-20T14:32:46;25.40;97.50
38090;DHT22;23904;52.322;10.232;2022-08-20T14:35:12;25.40;97.60
38090;DHT22;23904;52.322;10.232;2022-08-20T14:37:41;25.50;97.50
38090;DHT22;23904;52.322;10.232;2022-08-20T14:40:09;25.60;97.40
38090;DHT22;23904;52.322;10.232;2022-08-20T14:42:35;25.60;96.70
38090;DHT22;23904;52.322;10.232;2022-08-20T14:45:02;25.60;96.60
38090;DHT22;23904;52.322;10.232;2022-08-20T14:47:33;25.50;96.90
38090;DHT22;23904;52.322;10.232;2022-08-20T14:50:00;25.40;96.80
38090;DHT22;23904;52.322;10.232;2022-08-20T14:52:29;25.40;95.70
38090;DHT22;23904;52.322;10.232;2022-08-20T14:54:55;25.10;95.30
38090;DHT22;23904;52.322;10.232;2022-08-20T14:57:22;25.10;95.80
38090;DHT22;23904;52.322;10.232;2022-08-20T14:59:48;25.00;96.10
38090;DHT22;23904;52.322;10.232;2022-08-20T15:02:15;25.00;95.50
38090;DHT22;23904;52.322;10.232;2022-08-20T15:04:41;24.90;95.90
38090;DHT22;23904;52.322;10.232;2022-08-20T15:07:22;25.00;94.90
38090;DHT22;23904;52.322;10.232;2022-08-20T15:09:48;25.00;95.00
38090;DHT22;23904;52.322;10.232;2022-08-20T15:12:13;24.90;95.60
38090;DHT22;23904;52.322;10.232;2022-08-20T15:14:39;24.90;95.60
38090;DHT22;23904;52.322;10.232;2022-08-20T15:17:05;24.80;96.00
38090;DHT22;23904;52.322;10.232;2022-08-20T15:19:30;24.80;95.90